createdAt,value
2018-05-03T00:00:38.876Z,0.00
2018-05-03T00:01:45.063Z,0.00
2018-05-03T00:02:51.248Z,0.00
2018-05-03T00:03:57.484Z,0.00
2018-05-03T00:05:03.610Z,0.00
2018-05-03T00:06:09.802Z,0.00
2018-05-03T00:07:15.995Z,0.00
2018-05-03T00:08:22.155Z,0.00
2018-05-03T00:09:28.367Z,0.00
2018-05-03T00:10:34.526Z,0.00
2018-05-03T00:11:40.709Z,0.00
2018-05-03T00:12:46.903Z,0.00
2018-05-03T00:13:53.131Z,0.00
2018-05-03T00:14:59.266Z,0.00
2018-05-03T00:16:05.460Z,0.00
2018-05-03T00:17:11.657Z,0.00
2018-05-03T00:18:17.850Z,0.00
2018-05-03T00:19:24.028Z,0.00
2018-05-03T00:20:30.197Z,0.00
2018-05-03T00:21:36.375Z,0.00
2018-05-03T00:22:42.588Z,0.00
2018-05-03T00:23:48.778Z,0.00
2018-05-03T00:24:54.930Z,0.00
2018-05-03T00:26:01.131Z,0.00
2018-05-03T00:27:07.400Z,0.00
2018-05-03T00:28:13.488Z,0.00
2018-05-03T00:29:19.708Z,0.00
2018-05-03T00:30:25.881Z,0.00
2018-05-03T00:31:32.047Z,0.00
2018-05-03T00:32:38.239Z,0.00
2018-05-03T00:33:44.453Z,0.00
2018-05-03T00:34:50.607Z,0.00
2018-05-03T00:35:56.814Z,0.00
2018-05-03T00:37:03.024Z,0.00
2018-05-03T00:38:09.188Z,0.00
2018-05-03T00:39:15.422Z,0.00
2018-05-03T00:40:21.558Z,0.00
2018-05-03T00:41:27.748Z,0.00
2018-05-03T00:42:33.934Z,0.00
2018-05-03T00:43:40.137Z,0.00
2018-05-03T00:44:46.298Z,0.00
2018-05-03T00:45:52.490Z,0.00
2018-05-03T00:46:58.673Z,0.00
2018-05-03T00:48:04.862Z,0.00
2018-05-03T00:49:11.078Z,0.00
2018-05-03T00:50:17.251Z,0.00
2018-05-03T00:51:23.435Z,0.00
2018-05-03T00:52:29.625Z,0.00
2018-05-03T00:53:35.815Z,0.00
2018-05-03T00:54:42.009Z,0.00
2018-05-03T00:55:48.178Z,0.00
2018-05-03T00:56:54.374Z,0.00
2018-05-03T00:58:00.561Z,0.00
2018-05-03T00:59:06.766Z,0.00
2018-05-03T01:00:12.928Z,0.00
2018-05-03T01:01:19.113Z,0.00
2018-05-03T01:02:25.395Z,0.00
2018-05-03T01:03:31.486Z,0.00
2018-05-03T01:04:37.710Z,0.00
2018-05-03T01:05:43.860Z,0.00
2018-05-03T01:06:50.072Z,0.00
2018-05-03T01:07:56.255Z,0.00
2018-05-03T01:09:02.445Z,0.00
2018-05-03T01:10:08.622Z,0.00
2018-05-03T01:11:14.815Z,0.00
2018-05-03T01:12:20.989Z,0.00
2018-05-03T01:13:27.196Z,0.00
2018-05-03T01:14:33.430Z,0.00
2018-05-03T01:15:39.563Z,0.00
2018-05-03T01:16:45.747Z,0.00
2018-05-03T01:17:51.932Z,0.00
2018-05-03T01:18:58.138Z,0.00
2018-05-03T01:20:05.391Z,0.00
2018-05-03T01:21:10.480Z,0.00
2018-05-03T01:22:16.673Z,0.00
2018-05-03T01:23:22.880Z,0.00
2018-05-03T01:24:29.065Z,0.00
2018-05-03T01:25:35.237Z,0.00
2018-05-03T01:26:41.447Z,0.00
2018-05-03T01:27:47.612Z,0.00
2018-05-03T01:28:53.837Z,0.00
2018-05-03T01:29:59.993Z,0.00
2018-05-03T01:31:06.186Z,0.00
2018-05-03T01:32:12.364Z,0.00
2018-05-03T01:33:18.549Z,0.00
2018-05-03T01:34:24.746Z,0.00
2018-05-03T01:35:30.900Z,0.00
2018-05-03T01:36:37.104Z,0.00
2018-05-03T01:37:43.275Z,0.00
2018-05-03T01:38:49.472Z,0.00
2018-05-03T01:39:55.642Z,0.00
2018-05-03T01:41:01.831Z,0.00
2018-05-03T01:42:08.016Z,0.00
2018-05-03T01:43:14.192Z,0.00
2018-05-03T01:44:20.394Z,0.00
2018-05-03T01:45:26.531Z,0.00
2018-05-03T01:46:32.706Z,0.00
2018-05-03T01:47:38.906Z,0.00
2018-05-03T01:48:45.076Z,0.00
2018-05-03T01:49:51.277Z,0.00
2018-05-03T01:50:57.425Z,0.00
2018-05-03T01:52:03.615Z,0.00
2018-05-03T01:53:10.773Z,0.00
2018-05-03T01:54:15.980Z,0.00
2018-05-03T01:55:22.143Z,0.00
2018-05-03T01:56:28.343Z,0.00
2018-05-03T01:57:34.496Z,0.00
2018-05-03T01:58:40.681Z,0.00
2018-05-03T01:59:46.880Z,0.00
2018-05-03T02:00:53.048Z,0.00
2018-05-03T02:01:59.209Z,0.00
2018-05-03T02:03:05.399Z,0.00
2018-05-03T02:04:11.599Z,0.00
2018-05-03T02:05:17.753Z,0.00
2018-05-03T02:06:23.932Z,0.00
2018-05-03T02:07:30.106Z,0.00
2018-05-03T02:08:36.286Z,0.00
2018-05-03T02:09:42.493Z,0.00
2018-05-03T02:10:48.648Z,0.00
2018-05-03T02:11:54.817Z,0.00
2018-05-03T02:13:01.000Z,0.00
2018-05-03T02:14:07.196Z,0.00
2018-05-03T02:15:13.383Z,0.00
2018-05-03T02:16:19.503Z,0.00
2018-05-03T02:17:25.696Z,0.00
2018-05-03T02:18:31.877Z,0.00
2018-05-03T02:19:38.057Z,0.00
2018-05-03T02:20:44.221Z,0.00
2018-05-03T02:21:50.393Z,0.00
2018-05-03T02:22:56.577Z,0.00
2018-05-03T02:24:02.764Z,0.00
2018-05-03T02:25:08.915Z,0.00
2018-05-03T02:26:15.092Z,0.00
2018-05-03T02:27:21.263Z,0.00
2018-05-03T02:28:27.442Z,0.00
2018-05-03T02:29:33.624Z,0.00
2018-05-03T02:30:39.774Z,0.00
2018-05-03T02:31:45.980Z,0.00
2018-05-03T02:32:52.147Z,0.00
2018-05-03T02:33:58.338Z,0.00
2018-05-03T02:35:04.475Z,0.00
2018-05-03T02:36:10.645Z,0.00
2018-05-03T02:37:16.835Z,0.00
2018-05-03T02:38:23.007Z,0.00
2018-05-03T02:39:29.190Z,0.00
2018-05-03T02:40:35.381Z,0.00
2018-05-03T02:41:41.542Z,0.00
2018-05-03T02:42:47.712Z,0.00
2018-05-03T02:43:53.904Z,0.00
2018-05-03T02:45:00.071Z,0.00
2018-05-03T02:46:06.220Z,0.00
2018-05-03T02:47:12.394Z,0.00
2018-05-03T02:48:18.577Z,0.00
2018-05-03T02:49:24.753Z,0.00
2018-05-03T02:50:30.907Z,0.00
2018-05-03T02:51:37.097Z,0.00
2018-05-03T02:52:43.274Z,0.00
2018-05-03T02:53:49.435Z,0.00
2018-05-03T02:54:55.709Z,0.00
2018-05-03T02:56:01.797Z,0.00
2018-05-03T02:57:07.982Z,0.00
2018-05-03T02:58:14.150Z,0.00
2018-05-03T02:59:20.348Z,0.00
2018-05-03T03:00:26.509Z,0.00
2018-05-03T03:01:32.675Z,0.00
2018-05-03T03:02:38.843Z,0.00
2018-05-03T03:03:45.040Z,0.00
2018-05-03T03:04:51.235Z,0.00
2018-05-03T03:05:57.405Z,0.00
2018-05-03T03:07:03.563Z,0.00
2018-05-03T03:08:09.737Z,0.00
2018-05-03T03:09:15.929Z,0.00
2018-05-03T03:10:22.134Z,0.00
2018-05-03T03:11:28.265Z,0.00
2018-05-03T03:12:34.444Z,0.00
2018-05-03T03:13:40.631Z,0.00
2018-05-03T03:14:46.861Z,0.00
2018-05-03T03:15:52.996Z,0.00
2018-05-03T03:16:59.153Z,0.00
2018-05-03T03:18:05.380Z,0.00
2018-05-03T03:19:11.524Z,0.00
2018-05-03T03:20:18.708Z,0.00
2018-05-03T03:21:23.865Z,0.00
2018-05-03T03:22:30.058Z,0.00
2018-05-03T03:23:36.228Z,0.00
2018-05-03T03:24:42.421Z,0.00
2018-05-03T03:25:48.633Z,0.00
2018-05-03T03:26:54.764Z,0.00
2018-05-03T03:28:00.944Z,0.00
2018-05-03T03:29:07.137Z,0.00
2018-05-03T03:30:13.384Z,0.00
2018-05-03T03:31:19.533Z,0.00
2018-05-03T03:32:25.665Z,0.00
2018-05-03T03:33:31.869Z,0.00
2018-05-03T03:34:38.017Z,0.00
2018-05-03T03:35:44.199Z,0.00
2018-05-03T03:36:50.424Z,0.00
2018-05-03T03:37:56.569Z,0.00
2018-05-03T03:39:02.780Z,0.00
2018-05-03T03:40:08.936Z,0.00
2018-05-03T03:41:15.122Z,0.00
2018-05-03T03:42:21.466Z,0.00
2018-05-03T03:43:27.492Z,0.00
2018-05-03T03:44:33.658Z,0.00
2018-05-03T03:45:39.848Z,0.00
2018-05-03T03:46:46.016Z,0.00
2018-05-03T03:47:52.254Z,0.00
2018-05-03T03:48:59.388Z,0.00
2018-05-03T03:50:04.581Z,0.00
2018-05-03T03:51:10.758Z,0.00
2018-05-03T03:52:16.947Z,0.00
2018-05-03T03:53:23.173Z,0.00
2018-05-03T03:54:29.391Z,0.00
2018-05-03T03:55:35.530Z,0.00
2018-05-03T03:56:41.703Z,0.00
2018-05-03T03:57:47.902Z,0.00
2018-05-03T03:58:53.612Z,0.00
2018-05-03T04:00:00.279Z,0.00
2018-05-03T04:01:06.474Z,5.63
2018-05-03T04:02:12.646Z,5.63
2018-05-03T04:03:18.879Z,5.63
2018-05-03T04:04:25.060Z,5.63
2018-05-03T04:05:31.217Z,5.63
2018-05-03T04:06:37.401Z,5.63
2018-05-03T04:07:44.590Z,5.63
2018-05-03T04:08:49.783Z,5.63
2018-05-03T04:09:55.962Z,11.25
2018-05-03T04:11:02.156Z,11.25
2018-05-03T04:12:08.459Z,11.25
2018-05-03T04:13:14.512Z,11.25
2018-05-03T04:14:20.760Z,11.25
2018-05-03T04:15:26.905Z,16.88
2018-05-03T04:16:33.092Z,16.88
2018-05-03T04:17:39.383Z,16.88
2018-05-03T04:18:45.492Z,16.88
2018-05-03T04:19:51.678Z,22.50
2018-05-03T04:20:57.863Z,22.50
2018-05-03T04:22:04.090Z,22.50
2018-05-03T04:23:10.246Z,28.13
2018-05-03T04:24:16.472Z,28.13
2018-05-03T04:25:22.637Z,28.13
2018-05-03T04:26:28.832Z,33.75
2018-05-03T04:27:35.016Z,33.75
2018-05-03T04:28:41.229Z,33.75
2018-05-03T04:29:47.413Z,39.38
2018-05-03T04:30:53.601Z,39.38
2018-05-03T04:31:59.810Z,39.38
2018-05-03T04:33:06.048Z,45.00
2018-05-03T04:34:12.227Z,45.00
2018-05-03T04:35:18.411Z,45.00
2018-05-03T04:36:24.601Z,45.00
2018-05-03T04:37:30.818Z,45.00
2018-05-03T04:38:37.000Z,45.00
2018-05-03T04:39:43.234Z,45.00
2018-05-03T04:40:49.408Z,45.00
2018-05-03T04:41:55.627Z,45.00
2018-05-03T04:43:01.824Z,50.63
2018-05-03T04:44:08.050Z,50.63
2018-05-03T04:45:14.250Z,50.63
2018-05-03T04:46:20.440Z,56.25
2018-05-03T04:47:26.653Z,56.25
2018-05-03T04:48:32.853Z,56.25
2018-05-03T04:49:40.083Z,61.88
2018-05-03T04:50:45.387Z,61.88
2018-05-03T04:51:51.501Z,67.50
2018-05-03T04:52:57.715Z,73.13
2018-05-03T04:54:03.976Z,67.50
2018-05-03T04:55:10.128Z,73.13
2018-05-03T04:56:16.341Z,78.75
2018-05-03T04:57:22.558Z,84.38
2018-05-03T04:58:28.766Z,90.00
2018-05-03T04:59:34.994Z,95.63
2018-05-03T05:00:41.193Z,101.25
2018-05-03T05:01:48.412Z,106.88
2018-05-03T05:02:53.653Z,112.50
2018-05-03T05:03:59.884Z,118.13
2018-05-03T05:05:07.087Z,118.13
2018-05-03T05:06:12.313Z,123.75
2018-05-03T05:07:18.528Z,129.38
2018-05-03T05:08:24.766Z,129.38
2018-05-03T05:09:31.004Z,129.38
2018-05-03T05:10:37.220Z,129.38
2018-05-03T05:11:43.457Z,135.00
2018-05-03T05:12:49.684Z,140.63
2018-05-03T05:13:55.922Z,146.25
2018-05-03T05:15:02.177Z,151.88
2018-05-03T05:16:08.390Z,157.50
2018-05-03T05:17:14.615Z,163.13
2018-05-03T05:18:20.871Z,174.38
2018-05-03T05:19:27.119Z,180.00
2018-05-03T05:20:33.382Z,185.63
2018-05-03T05:21:39.595Z,196.88
2018-05-03T05:22:45.844Z,202.50
2018-05-03T05:23:52.093Z,202.50
2018-05-03T05:24:58.356Z,208.13
2018-05-03T05:26:04.608Z,213.75
2018-05-03T05:27:10.862Z,219.38
2018-05-03T05:28:17.093Z,225.00
2018-05-03T05:29:23.406Z,230.63
2018-05-03T05:30:29.620Z,241.88
2018-05-03T05:31:35.876Z,247.50
2018-05-03T05:32:42.152Z,258.75
2018-05-03T05:33:48.420Z,264.38
2018-05-03T05:34:54.706Z,275.63
2018-05-03T05:36:00.953Z,281.25
2018-05-03T05:37:07.239Z,281.25
2018-05-03T05:38:13.508Z,286.88
2018-05-03T05:39:19.884Z,292.50
2018-05-03T05:40:26.066Z,298.13
2018-05-03T05:41:31.853Z,309.38
2018-05-03T05:42:38.636Z,315.00
2018-05-03T05:43:44.987Z,320.63
2018-05-03T05:44:51.228Z,320.63
2018-05-03T05:45:57.516Z,315.00
2018-05-03T05:47:03.804Z,309.38
2018-05-03T05:48:11.099Z,309.38
2018-05-03T05:49:16.415Z,309.38
2018-05-03T05:50:22.697Z,309.38
2018-05-03T05:51:28.991Z,315.00
2018-05-03T05:52:35.385Z,320.63
2018-05-03T05:53:41.596Z,326.25
2018-05-03T05:54:47.927Z,326.25
2018-05-03T05:55:54.207Z,320.63
2018-05-03T05:57:00.527Z,320.63
2018-05-03T05:58:06.822Z,315.00
2018-05-03T05:59:13.174Z,303.75
2018-05-03T06:00:19.458Z,298.13
2018-05-03T06:01:25.791Z,298.13
2018-05-03T06:02:32.084Z,292.50
2018-05-03T06:03:38.399Z,292.50
2018-05-03T06:04:45.254Z,292.50
2018-05-03T06:05:51.038Z,286.88
2018-05-03T06:06:57.387Z,281.25
2018-05-03T06:08:04.681Z,275.63
2018-05-03T06:09:10.028Z,270.00
2018-05-03T06:10:16.347Z,264.38
2018-05-03T06:11:22.652Z,258.75
2018-05-03T06:12:28.960Z,247.50
2018-05-03T06:13:35.387Z,241.88
2018-05-03T06:14:41.643Z,241.88
2018-05-03T06:15:47.926Z,230.63
2018-05-03T06:16:54.257Z,225.00
2018-05-03T06:18:00.583Z,213.75
2018-05-03T06:19:06.908Z,208.13
2018-05-03T06:20:13.233Z,202.50
2018-05-03T06:21:19.569Z,202.50
2018-05-03T06:22:25.829Z,196.88
2018-05-03T06:23:32.145Z,196.88
2018-05-03T06:24:38.473Z,191.25
2018-05-03T06:25:44.768Z,191.25
2018-05-03T06:26:51.097Z,185.63
2018-05-03T06:27:57.389Z,185.63
2018-05-03T06:29:03.692Z,185.63
2018-05-03T06:30:10.028Z,185.63
2018-05-03T06:31:16.308Z,180.00
2018-05-03T06:32:22.602Z,180.00
2018-05-03T06:33:28.904Z,180.00
2018-05-03T06:34:35.234Z,185.63
2018-05-03T06:35:41.509Z,185.63
2018-05-03T06:36:47.827Z,191.25
2018-05-03T06:37:54.104Z,191.25
2018-05-03T06:39:00.410Z,191.25
2018-05-03T06:40:06.734Z,191.25
2018-05-03T06:41:13.026Z,191.25
2018-05-03T06:42:19.385Z,191.25
2018-05-03T06:43:25.624Z,196.88
2018-05-03T06:44:31.957Z,196.88
2018-05-03T06:45:38.245Z,196.88
2018-05-03T06:46:44.562Z,196.88
2018-05-03T06:47:50.853Z,196.88
2018-05-03T06:48:57.241Z,196.88
2018-05-03T06:50:03.507Z,202.50
2018-05-03T06:51:09.800Z,196.88
2018-05-03T06:52:16.116Z,196.88
2018-05-03T06:53:22.447Z,202.50
2018-05-03T06:54:28.807Z,202.50
2018-05-03T06:55:35.095Z,202.50
2018-05-03T06:56:41.428Z,202.50
2018-05-03T06:57:48.755Z,208.13
2018-05-03T06:58:54.094Z,208.13
2018-05-03T07:00:00.453Z,202.50
2018-05-03T07:01:06.811Z,208.13
2018-05-03T07:02:13.093Z,208.13
2018-05-03T07:03:19.442Z,208.13
2018-05-03T07:04:25.833Z,208.13
2018-05-03T07:05:32.115Z,213.75
2018-05-03T07:06:38.462Z,213.75
2018-05-03T07:07:44.810Z,213.75
2018-05-03T07:08:51.153Z,213.75
2018-05-03T07:09:57.575Z,219.38
2018-05-03T07:11:03.364Z,219.38
2018-05-03T07:12:10.211Z,208.13
2018-05-03T07:13:16.565Z,196.88
2018-05-03T07:14:22.924Z,196.88
2018-05-03T07:15:29.415Z,208.13
2018-05-03T07:16:35.635Z,219.38
2018-05-03T07:17:41.995Z,236.25
2018-05-03T07:18:48.346Z,258.75
2018-05-03T07:19:54.753Z,286.88
2018-05-03T07:21:01.096Z,303.75
2018-05-03T07:22:07.489Z,331.88
2018-05-03T07:23:13.855Z,371.25
2018-05-03T07:24:20.238Z,393.75
2018-05-03T07:25:26.176Z,416.25
2018-05-03T07:26:33.026Z,427.50
2018-05-03T07:27:39.432Z,444.38
2018-05-03T07:28:45.826Z,466.88
2018-05-03T07:29:52.276Z,483.75
2018-05-03T07:30:58.666Z,489.38
2018-05-03T07:32:04.594Z,506.25
2018-05-03T07:33:11.514Z,517.50
2018-05-03T07:34:17.944Z,528.75
2018-05-03T07:35:24.404Z,534.38
2018-05-03T07:36:30.826Z,540.00
2018-05-03T07:37:37.262Z,540.00
2018-05-03T07:38:43.716Z,534.38
2018-05-03T07:39:50.201Z,540.00
2018-05-03T07:40:56.626Z,534.38
2018-05-03T07:42:03.086Z,540.00
2018-05-03T07:43:09.030Z,534.38
2018-05-03T07:44:15.486Z,540.00
2018-05-03T07:45:22.467Z,534.38
2018-05-03T07:46:28.917Z,534.38
2018-05-03T07:47:35.380Z,540.00
2018-05-03T07:48:41.357Z,540.00
2018-05-03T07:49:48.356Z,545.63
2018-05-03T07:50:54.301Z,545.63
2018-05-03T07:52:01.273Z,540.00
2018-05-03T07:53:07.741Z,551.25
2018-05-03T07:54:14.218Z,556.88
2018-05-03T07:55:20.717Z,562.50
2018-05-03T07:56:27.189Z,562.50
2018-05-03T07:57:33.684Z,568.13
2018-05-03T07:58:40.152Z,568.13
2018-05-03T07:59:46.674Z,562.50
2018-05-03T08:00:53.147Z,568.13
2018-05-03T08:01:59.675Z,568.13
2018-05-03T08:03:06.139Z,568.13
2018-05-03T08:04:12.734Z,568.13
2018-05-03T08:05:19.173Z,568.13
2018-05-03T08:06:25.648Z,568.13
2018-05-03T08:07:32.171Z,562.50
2018-05-03T08:08:38.178Z,562.50
2018-05-03T08:09:45.212Z,551.25
2018-05-03T08:10:51.711Z,540.00
2018-05-03T08:11:58.208Z,528.75
2018-05-03T08:13:04.719Z,523.13
2018-05-03T08:14:11.236Z,500.63
2018-05-03T08:15:17.765Z,478.13
2018-05-03T08:16:24.260Z,455.63
2018-05-03T08:17:30.771Z,444.38
2018-05-03T08:18:37.404Z,433.13
2018-05-03T08:19:43.294Z,421.88
2018-05-03T08:20:50.258Z,421.88
2018-05-03T08:21:56.763Z,416.25
2018-05-03T08:23:03.245Z,410.63
2018-05-03T08:24:09.749Z,416.25
2018-05-03T08:25:16.275Z,427.50
2018-05-03T08:26:22.741Z,444.38
2018-05-03T08:27:30.246Z,466.88
2018-05-03T08:28:35.812Z,500.63
2018-05-03T08:29:42.290Z,540.00
2018-05-03T08:30:48.766Z,590.63
2018-05-03T08:31:55.369Z,630.00
2018-05-03T08:33:01.776Z,658.13
2018-05-03T08:34:08.304Z,669.38
2018-05-03T08:35:14.850Z,675.00
2018-05-03T08:36:20.867Z,675.00
2018-05-03T08:37:27.909Z,675.00
2018-05-03T08:38:34.443Z,675.00
2018-05-03T08:39:41.001Z,680.63
2018-05-03T08:40:47.553Z,680.63
2018-05-03T08:41:54.093Z,686.25
2018-05-03T08:43:01.641Z,691.88
2018-05-03T08:44:07.208Z,703.13
2018-05-03T08:45:13.782Z,703.13
2018-05-03T08:46:20.324Z,703.13
2018-05-03T08:47:26.894Z,708.75
2018-05-03T08:48:33.458Z,708.75
2018-05-03T08:49:40.036Z,708.75
2018-05-03T08:50:46.644Z,714.38
2018-05-03T08:51:53.199Z,725.63
2018-05-03T08:52:59.780Z,736.88
2018-05-03T08:54:06.349Z,725.63
2018-05-03T08:55:12.953Z,714.38
2018-05-03T08:56:19.531Z,697.50
2018-05-03T08:57:26.137Z,680.63
2018-05-03T08:58:32.678Z,675.00
2018-05-03T08:59:39.262Z,675.00
2018-05-03T09:00:45.874Z,675.00
2018-05-03T09:01:51.971Z,669.38
2018-05-03T09:02:59.011Z,663.75
2018-05-03T09:04:05.583Z,652.50
2018-05-03T09:05:12.162Z,652.50
2018-05-03T09:06:18.763Z,658.13
2018-05-03T09:07:25.387Z,663.75
2018-05-03T09:08:31.903Z,669.38
2018-05-03T09:09:38.481Z,675.00
2018-05-03T09:10:44.563Z,686.25
2018-05-03T09:11:51.670Z,703.13
2018-05-03T09:12:58.241Z,708.75
2018-05-03T09:14:04.833Z,731.25
2018-05-03T09:15:11.460Z,759.38
2018-05-03T09:16:18.065Z,776.25
2018-05-03T09:17:24.641Z,798.75
2018-05-03T09:18:31.262Z,810.00
2018-05-03T09:19:37.879Z,815.63
2018-05-03T09:20:44.507Z,815.63
2018-05-03T09:21:51.164Z,815.63
2018-05-03T09:22:58.773Z,815.63
2018-05-03T09:24:04.422Z,804.38
2018-05-03T09:25:10.571Z,810.00
2018-05-03T09:26:17.756Z,810.00
2018-05-03T09:27:24.402Z,815.63
2018-05-03T09:28:31.089Z,810.00
2018-05-03T09:29:37.708Z,776.25
2018-05-03T09:30:43.883Z,736.88
2018-05-03T09:31:51.058Z,703.13
2018-05-03T09:32:57.694Z,675.00
2018-05-03T09:34:03.856Z,669.38
2018-05-03T09:35:11.036Z,669.38
2018-05-03T09:36:17.677Z,675.00
2018-05-03T09:37:24.364Z,686.25
2018-05-03T09:38:31.015Z,680.63
2018-05-03T09:39:37.674Z,675.00
2018-05-03T09:40:44.343Z,669.38
2018-05-03T09:41:51.045Z,663.75
2018-05-03T09:42:57.662Z,663.75
2018-05-03T09:44:04.324Z,658.13
2018-05-03T09:45:10.989Z,641.25
2018-05-03T09:46:17.654Z,618.75
2018-05-03T09:47:24.343Z,568.13
2018-05-03T09:48:30.980Z,511.88
2018-05-03T09:49:37.637Z,461.25
2018-05-03T09:50:43.796Z,427.50
2018-05-03T09:51:50.935Z,421.88
2018-05-03T09:52:57.562Z,416.25
2018-05-03T09:54:04.164Z,416.25
2018-05-03T09:55:10.788Z,410.63
2018-05-03T09:56:17.422Z,393.75
2018-05-03T09:57:24.306Z,376.88
2018-05-03T09:58:30.675Z,365.63
2018-05-03T09:59:37.235Z,371.25
2018-05-03T10:00:43.840Z,405.00
2018-05-03T10:01:50.429Z,427.50
2018-05-03T10:02:56.533Z,399.38
2018-05-03T10:04:03.639Z,382.50
2018-05-03T10:05:09.704Z,365.63
2018-05-03T10:06:16.779Z,421.88
2018-05-03T10:07:23.389Z,399.38
2018-05-03T10:08:29.957Z,427.50
2018-05-03T10:09:36.519Z,438.75
2018-05-03T10:10:43.102Z,450.00
2018-05-03T10:11:49.665Z,450.00
2018-05-03T10:12:56.236Z,506.25
2018-05-03T10:14:02.853Z,562.50
2018-05-03T10:15:09.394Z,635.63
2018-05-03T10:16:15.484Z,714.38
2018-05-03T10:17:22.550Z,798.75
2018-05-03T10:18:29.177Z,832.50
2018-05-03T10:19:35.786Z,877.50
2018-05-03T10:20:42.415Z,973.13
2018-05-03T10:21:48.558Z,990.00
2018-05-03T10:22:55.723Z,922.50
2018-05-03T10:24:02.435Z,838.13
2018-05-03T10:25:09.117Z,765.00
2018-05-03T10:26:15.822Z,703.13
2018-05-03T10:27:22.517Z,703.13
2018-05-03T10:28:29.217Z,697.50
2018-05-03T10:29:35.463Z,646.88
2018-05-03T10:30:42.652Z,607.50
2018-05-03T10:31:49.394Z,596.25
2018-05-03T10:32:56.042Z,585.00
2018-05-03T10:34:02.747Z,579.38
2018-05-03T10:35:09.402Z,596.25
2018-05-03T10:36:16.148Z,624.38
2018-05-03T10:37:22.773Z,635.63
2018-05-03T10:38:29.464Z,641.25
2018-05-03T10:39:36.167Z,551.25
2018-05-03T10:40:42.815Z,466.88
2018-05-03T10:41:49.544Z,399.38
2018-05-03T10:42:56.149Z,382.50
2018-05-03T10:44:02.770Z,399.38
2018-05-03T10:45:09.424Z,393.75
2018-05-03T10:46:16.035Z,399.38
2018-05-03T10:47:22.147Z,405.00
2018-05-03T10:48:29.250Z,410.63
2018-05-03T10:49:35.841Z,410.63
2018-05-03T10:50:42.477Z,416.25
2018-05-03T10:51:49.041Z,421.88
2018-05-03T10:52:55.617Z,438.75
2018-05-03T10:54:02.228Z,455.63
2018-05-03T10:55:08.826Z,495.00
2018-05-03T10:56:14.901Z,551.25
2018-05-03T10:57:22.001Z,573.75
2018-05-03T10:58:28.597Z,568.13
2018-05-03T10:59:35.194Z,585.00
2018-05-03T11:00:41.843Z,568.13
2018-05-03T11:01:47.949Z,585.00
2018-05-03T11:02:54.576Z,618.75
2018-05-03T11:04:01.697Z,680.63
2018-05-03T11:05:08.428Z,714.38
2018-05-03T11:06:14.973Z,770.63
2018-05-03T11:07:21.619Z,849.38
2018-05-03T11:08:28.306Z,843.75
2018-05-03T11:09:35.004Z,877.50
2018-05-03T11:10:41.763Z,928.13
2018-05-03T11:11:48.581Z,866.25
2018-05-03T11:12:55.440Z,815.63
2018-05-03T11:14:02.286Z,798.75
2018-05-03T11:15:09.115Z,753.75
2018-05-03T11:16:15.954Z,680.63
2018-05-03T11:17:22.723Z,663.75
2018-05-03T11:18:29.014Z,663.75
2018-05-03T11:19:36.267Z,691.88
2018-05-03T11:20:43.035Z,691.88
2018-05-03T11:21:49.782Z,708.75
2018-05-03T11:22:56.509Z,765.00
2018-05-03T11:24:03.239Z,871.88
2018-05-03T11:25:09.990Z,1451.25
2018-05-03T11:26:16.790Z,1181.25
2018-05-03T11:27:23.105Z,1518.75
2018-05-03T11:28:30.475Z,1029.38
2018-05-03T11:29:37.418Z,793.13
2018-05-03T11:30:44.261Z,759.38
2018-05-03T11:31:51.173Z,770.63
2018-05-03T11:32:59.000Z,798.75
2018-05-03T11:34:04.848Z,821.25
2018-05-03T11:35:11.774Z,866.25
2018-05-03T11:36:18.752Z,838.13
2018-05-03T11:37:25.810Z,821.25
2018-05-03T11:38:32.219Z,748.13
2018-05-03T11:39:39.079Z,703.13
2018-05-03T11:40:45.785Z,680.63
2018-05-03T11:41:52.625Z,691.88
2018-05-03T11:42:59.310Z,714.38
2018-05-03T11:44:06.099Z,736.88
2018-05-03T11:45:12.793Z,781.88
2018-05-03T11:46:19.797Z,798.75
2018-05-03T11:47:26.449Z,804.38
2018-05-03T11:48:33.036Z,838.13
2018-05-03T11:49:39.293Z,871.88
2018-05-03T11:50:46.484Z,888.75
2018-05-03T11:51:52.829Z,911.25
2018-05-03T11:52:59.924Z,973.13
2018-05-03T11:54:06.671Z,1096.88
2018-05-03T11:55:13.387Z,1153.13
2018-05-03T11:56:20.319Z,1591.88
2018-05-03T11:57:27.092Z,1670.63
2018-05-03T11:58:33.921Z,1136.25
2018-05-03T11:59:40.442Z,1035.00
2018-05-03T12:00:47.795Z,1091.25
2018-05-03T12:01:54.759Z,1147.50
2018-05-03T12:03:01.699Z,1186.88
2018-05-03T12:04:08.685Z,1541.25
2018-05-03T12:05:15.738Z,1423.13
2018-05-03T12:06:22.838Z,1389.38
2018-05-03T12:07:30.059Z,1164.38
2018-05-03T12:08:37.131Z,1113.75
2018-05-03T12:09:44.302Z,1248.75
2018-05-03T12:10:51.514Z,1400.63
2018-05-03T12:11:58.723Z,1411.88
2018-05-03T12:13:06.028Z,1400.63
2018-05-03T12:14:13.273Z,1130.63
2018-05-03T12:15:20.525Z,978.75
2018-05-03T12:16:27.767Z,1051.88
2018-05-03T12:17:34.983Z,1130.63
2018-05-03T12:18:42.212Z,860.63
2018-05-03T12:19:49.388Z,888.75
2018-05-03T12:20:56.574Z,1136.25
2018-05-03T12:22:03.834Z,753.75
2018-05-03T12:23:10.979Z,725.63
2018-05-03T12:24:18.147Z,725.63
2018-05-03T12:25:25.234Z,1074.38
2018-05-03T12:26:32.496Z,1051.88
2018-05-03T12:27:39.083Z,1074.38
2018-05-03T12:28:46.847Z,1130.63
2018-05-03T12:29:54.087Z,1220.63
2018-05-03T12:31:00.900Z,1305.00
2018-05-03T12:32:08.709Z,916.88
2018-05-03T12:33:15.646Z,1338.75
2018-05-03T12:34:23.421Z,922.50
2018-05-03T12:35:30.568Z,821.25
2018-05-03T12:36:37.738Z,883.13
2018-05-03T12:37:45.016Z,1310.63
2018-05-03T12:38:52.282Z,1186.88
2018-05-03T12:39:59.789Z,1158.75
2018-05-03T12:41:06.902Z,1091.25
2018-05-03T12:42:14.150Z,523.13
2018-05-03T12:43:21.402Z,534.38
2018-05-03T12:44:28.837Z,686.25
2018-05-03T12:45:35.404Z,1271.25
2018-05-03T12:46:42.471Z,1215.00
2018-05-03T12:47:50.175Z,1231.88
2018-05-03T12:48:57.473Z,1310.63
2018-05-03T12:50:04.230Z,1305.00
2018-05-03T12:51:11.987Z,1400.63
2018-05-03T12:52:20.299Z,1366.88
2018-05-03T12:53:26.639Z,1130.63
2018-05-03T12:54:33.978Z,1338.75
2018-05-03T12:55:41.387Z,1170.00
2018-05-03T12:56:48.608Z,978.75
2018-05-03T12:57:56.033Z,1119.38
2018-05-03T12:59:03.079Z,1136.25
2018-05-03T13:00:09.822Z,1068.75
2018-05-03T13:01:17.554Z,900.00
2018-05-03T13:02:24.776Z,900.00
2018-05-03T13:03:31.951Z,939.38
2018-05-03T13:04:39.126Z,978.75
2018-05-03T13:05:46.205Z,956.25
2018-05-03T13:06:53.619Z,1001.25
2018-05-03T13:07:59.976Z,1040.63
2018-05-03T13:09:07.120Z,1254.38
2018-05-03T13:10:14.710Z,1378.13
2018-05-03T13:11:21.872Z,1333.13
2018-05-03T13:12:29.055Z,1355.63
2018-05-03T13:13:36.256Z,1271.25
2018-05-03T13:14:43.032Z,1226.25
2018-05-03T13:15:50.719Z,1321.88
2018-05-03T13:16:57.978Z,1378.13
2018-05-03T13:18:05.236Z,1299.38
2018-05-03T13:19:11.999Z,1215.00
2018-05-03T13:20:19.784Z,1096.88
2018-05-03T13:21:27.009Z,1018.13
2018-05-03T13:22:34.251Z,961.88
2018-05-03T13:23:40.979Z,900.00
2018-05-03T13:24:48.705Z,832.50
2018-05-03T13:25:55.361Z,776.25
2018-05-03T13:27:02.996Z,742.50
2018-05-03T13:28:10.120Z,714.38
2018-05-03T13:29:17.203Z,720.00
2018-05-03T13:30:23.787Z,748.13
2018-05-03T13:31:31.391Z,787.50
2018-05-03T13:32:37.824Z,787.50
2018-05-03T13:33:45.389Z,781.88
2018-05-03T13:34:51.853Z,776.25
2018-05-03T13:35:59.408Z,793.13
2018-05-03T13:37:06.329Z,843.75
2018-05-03T13:38:13.392Z,900.00
2018-05-03T13:39:19.807Z,871.88
2018-05-03T13:40:27.420Z,770.63
2018-05-03T13:41:34.296Z,765.00
2018-05-03T13:42:41.404Z,736.88
2018-05-03T13:43:47.772Z,765.00
2018-05-03T13:44:55.253Z,883.13
2018-05-03T13:46:02.254Z,1006.88
2018-05-03T13:47:09.221Z,1153.13
2018-05-03T13:48:16.228Z,1113.75
2018-05-03T13:49:23.386Z,1299.38
2018-05-03T13:50:30.378Z,1355.63
2018-05-03T13:51:36.984Z,1395.00
2018-05-03T13:52:44.332Z,1282.50
2018-05-03T13:53:51.821Z,1170.00
2018-05-03T13:54:59.016Z,686.25
2018-05-03T13:56:05.732Z,618.75
2018-05-03T13:57:12.866Z,601.88
2018-05-03T13:58:19.978Z,613.13
2018-05-03T13:59:27.581Z,618.75
2018-05-03T14:00:34.630Z,601.88
2018-05-03T14:01:41.715Z,596.25
2018-05-03T14:02:48.210Z,601.88
2018-05-03T14:03:55.703Z,641.25